Time;durP1;ratioP1;P1;durP2;ratioP2;P2;SDS_P1;SDS_P2;PMS_P1;PMS_P2;Temp;Humidity;BMP_temperature;BMP_pressure;BME280_temperature;BME280_humidity;BME280_pressure;Samples;Min_cycle;Max_cycle;Signal;HPM_P1;HPM_P2
2023/08/17 00:00:42;;;;;;;;;;;21.10;99.90;;;20.00;100.00;100371.41;9776038;29;98122;-89
2023/08/17 00:05:45;;;;;;;;;;;21.10;99.90;;;20.03;100.00;100374.47;9769546;29;97733;-90
2023/08/17 00:10:49;;;;;;;;;;;21.10;99.90;;;20.01;100.00;100368.47;9787069;29;96750;-90
2023/08/17 00:15:53;;;;;;;;;;;21.10;99.90;;;19.97;100.00;100363.75;9761384;29;96863;-89
2023/08/17 00:20:56;;;;;;;;;;;21.10;99.90;;;19.98;100.00;100368.09;9758136;29;96796;-89
2023/08/17 00:26:00;;;;;;;;;;;21.10;99.90;;;19.92;100.00;100348.25;9763384;29;96737;-90
2023/08/17 00:31:03;;;;;;;;;;;21.00;99.90;;;19.91;100.00;100354.69;9738390;29;96768;-88
2023/08/17 00:36:07;;;;;;;;;;;21.00;99.90;;;19.90;100.00;100365.69;9754432;29;97416;-89
2023/08/17 00:41:10;;;;;;;;;;;21.00;99.90;;;19.80;100.00;100344.66;9743557;29;98581;-90
2023/08/17 00:46:14;;;;;;;;;;;20.90;99.90;;;19.80;100.00;100347.34;9757616;29;98350;-90
2023/08/17 00:51:20;;;;;;;;;;;20.90;99.90;;;19.74;100.00;100342.88;9727437;29;97889;-89
2023/08/17 00:56:23;;;;;;;;;;;20.90;99.90;;;19.76;100.00;100362.31;9756155;29;96803;-90
2023/08/17 01:01:27;;;;;;;;;;;20.80;99.90;;;19.77;100.00;100369.38;9749060;29;97448;-89
2023/08/17 01:06:30;;;;;;;;;;;20.80;99.90;;;19.74;100.00;100354.47;9730997;29;98747;-89
2023/08/17 01:11:56;;;;;;;;;;;20.90;99.90;;;19.76;100.00;100356.94;9753966;29;98172;-90
2023/08/17 01:17:06;;;;;;;;;;;20.90;99.90;;;19.78;100.00;100365.63;9755622;29;97495;-90
2023/08/17 01:22:11;;;;;;;;;;;20.90;99.90;;;19.70;100.00;100355.97;9758168;29;97165;-90
2023/08/17 01:27:14;;;;;;;;;;;20.90;99.90;;;19.77;100.00;100378.28;9747691;29;98625;-89
2023/08/17 01:32:30;;;;;;;;;;;20.80;99.90;;;19.74;100.00;100361.75;9732886;29;98086;-89
2023/08/17 01:37:34;;;;;;;;;;;20.90;99.90;;;19.78;100.00;100360.22;9747995;29;97620;-89
2023/08/17 01:42:38;;;;;;;;;;;20.90;99.90;;;19.77;100.00;100361.28;9733425;29;98346;-89
2023/08/17 01:47:42;;;;;;;;;;;20.90;99.90;;;19.73;100.00;100346.59;9738256;29;96894;-89
2023/08/17 01:52:45;;;;;;;;;;;20.90;99.90;;;19.76;100.00;100356.94;9736744;29;97567;-89
2023/08/17 01:57:49;;;;;;;;;;;20.80;99.90;;;19.74;100.00;100353.66;9742737;29;97159;-89
2023/08/17 02:02:52;;;;;;;;;;;20.80;99.90;;;19.72;100.00;100350.34;9729122;29;98507;-89
2023/08/17 02:07:56;;;;;;;;;;;20.80;99.90;;;19.69;100.00;100334.63;9729069;29;96711;-89
2023/08/17 02:13:00;;;;;;;;;;;20.80;99.90;;;19.69;100.00;100346.22;9762634;29;97388;-89
2023/08/17 02:18:19;;;;;;;;;;;20.80;99.90;;;19.64;100.00;100353.34;9751838;29;97013;-88
2023/08/17 02:23:23;;;;;;;;;;;20.80;99.90;;;19.68;100.00;100349.16;9741267;29;98276;-88
2023/08/17 02:28:27;;;;;;;;;;;20.80;99.90;;;19.63;100.00;100355.22;9739058;29;96754;-88
2023/08/17 02:33:31;;;;;;;;;;;20.80;99.90;;;19.65;100.00;100360.38;9755334;29;96786;-89
2023/08/17 02:38:34;;;;;;;;;;;20.70;99.90;;;19.63;100.00;100359.78;9753821;29;97156;-89
2023/08/17 02:43:38;;;;;;;;;;;20.80;99.90;;;19.65;100.00;100374.66;9748855;29;96810;-88
2023/08/17 02:48:41;;;;;;;;;;;20.80;99.90;;;19.62;100.00;100355.44;9757985;29;98250;-88
2023/08/17 02:53:45;;;;;;;;;;;20.80;99.90;;;19.59;100.00;100345.91;9733240;29;98372;-89
2023/08/17 02:58:48;;;;;;;;;;;20.80;99.90;;;19.62;100.00;100355.44;9736365;29;98491;-89
2023/08/17 03:03:51;;;;;;;;;;;20.80;99.90;;;19.68;100.00;100349.16;9757390;29;96752;-89
2023/08/17 03:08:55;;;;;;;;;;;20.80;99.90;;;19.69;100.00;100358.88;9757456;29;97730;-89
2023/08/17 03:14:01;;;;;;;;;;;20.80;99.90;;;19.66;100.00;100356.63;9760624;29;97984;-88
2023/08/17 03:19:07;;;;;;;;;;;20.80;99.90;;;19.58;100.00;100340.72;9741064;29;98201;-88
2023/08/17 03:24:10;;;;;;;;;;;20.70;99.90;;;19.57;100.00;100336.38;9756961;29;97998;-89
2023/08/17 03:29:14;;;;;;;;;;;20.70;99.90;;;19.60;100.00;100339.47;9742959;29;97232;-88
2023/08/17 03:34:17;;;;;;;;;;;20.70;99.90;;;19.64;100.00;100337.16;9742897;29;96977;-89
2023/08/17 03:39:21;;;;;;;;;;;20.80;99.90;;;19.61;100.00;100330.34;9756756;29;98682;-88
2023/08/17 03:44:24;;;;;;;;;;;20.70;99.90;;;19.61;100.00;100322.28;9725639;29;96739;-88
2023/08/17 03:49:28;;;;;;;;;;;20.70;99.90;;;19.67;100.00;100336.69;9734192;29;98195;-88
2023/08/17 03:54:31;;;;;;;;;;;20.80;99.90;;;19.67;100.00;100325.91;9739506;29;98922;-88
2023/08/17 03:59:35;;;;;;;;;;;20.80;99.90;;;19.70;100.00;100330.88;9735166;29;97767;-88
2023/08/17 04:04:38;;;;;;;;;;;20.90;99.90;;;19.67;100.00;100329.47;9740869;29;98906;-87
2023/08/17 04:09:44;;;;;;;;;;;20.80;99.90;;;19.64;100.00;100334.47;9748226;29;97066;-87
2023/08/17 04:14:48;;;;;;;;;;;20.80;99.90;;;19.66;100.00;100340.44;9744561;29;96813;-87
2023/08/17 04:19:52;;;;;;;;;;;20.80;99.90;;;19.70;100.00;100337.09;9740375;29;98307;-88
2023/08/17 04:24:55;;;;;;;;;;;20.80;99.90;;;19.72;100.00;100342.25;9735404;29;97663;-90
2023/08/17 04:30:00;;;;;;;;;;;20.90;99.90;;;19.77;100.00;100339.72;9740707;29;98352;-88
2023/08/17 04:35:04;;;;;;;;;;;20.90;99.90;;;19.81;100.00;100337.41;9736244;29;97893;-87
2023/08/17 04:40:09;;;;;;;;;;;21.00;99.90;;;19.83;100.00;100340.69;9750678;29;96699;-87
2023/08/17 04:45:13;;;;;;;;;;;21.00;99.90;;;19.84;100.00;100347.72;9756346;29;98742;-87
2023/08/17 04:50:17;;;;;;;;;;;21.00;99.90;;;19.86;100.00;100351.03;9740526;29;98919;-88
2023/08/17 04:55:20;;;;;;;;;;;21.10;99.90;;;19.90;100.00;100355.72;9744335;29;97803;-87
2023/08/17 05:00:27;;;;;;;;;;;21.10;99.90;;;19.98;100.00;100363.53;9738383;29;97581;-86
2023/08/17 05:05:31;;;;;;;;;;;21.20;99.90;;;19.97;100.00;100359.19;9728844;29;97288;-89
2023/08/17 05:10:34;;;;;;;;;;;21.20;99.90;;;19.97;100.00;100348.41;9745134;29;96784;-89
2023/08/17 05:15:38;;;;;;;;;;;21.20;99.90;;;20.05;100.00;100361.56;9737934;29;97811;-89
2023/08/17 05:20:41;;;;;;;;;;;21.20;99.90;;;20.09;100.00;100356.56;9755520;29;98518;-89
2023/08/17 05:25:48;;;;;;;;;;;21.30;99.90;;;20.21;100.00;100354.75;9745937;29;98415;-89
2023/08/17 05:30:53;;;;;;;;;;;21.40;99.90;;;20.32;100.00;100350.44;9757275;29;96962;-88
2023/08/17 05:35:56;;;;;;;;;;;21.50;99.90;;;20.51;100.00;100365.59;9741612;29;98498;-88
2023/08/17 05:41:01;;;;;;;;;;;21.70;99.90;;;20.61;100.00;100348.81;9736114;29;98431;-89
2023/08/17 05:46:05;;;;;;;;;;;21.80;99.90;;;20.74;100.00;100359.41;9736067;29;97901;-87
2023/08/17 05:51:08;;;;;;;;;;;21.90;99.90;;;20.90;100.00;100368.75;9755494;29;98515;-87
2023/08/17 05:56:12;;;;;;;;;;;22.10;99.90;;;21.01;100.00;100367.13;9730174;29;98780;-87
2023/08/17 06:01:15;;;;;;;;;;;22.20;99.90;;;21.07;100.00;100356.22;9756457;29;96893;-86
2023/08/17 06:06:19;;;;;;;;;;;22.30;99.90;;;21.17;100.00;100357.50;9755494;29;98255;-86
2023/08/17 06:11:23;;;;;;;;;;;22.40;99.90;;;21.35;100.00;100346.63;9740627;29;98514;-86
2023/08/17 06:16:27;;;;;;;;;;;22.50;99.90;;;21.46;100.00;100343.09;9747726;29;98408;-86
2023/08/17 06:21:31;;;;;;;;;;;22.70;99.90;;;21.57;100.00;100346.84;9748235;29;98544;-85
2023/08/17 06:26:34;;;;;;;;;;;22.80;99.90;;;21.76;100.00;100351.06;9735440;29;97613;-87
2023/08/17 06:31:38;;;;;;;;;;;23.00;99.90;;;21.86;100.00;100339.63;9755205;29;97449;-85
2023/08/17 06:36:56;;;;;;;;;;;23.10;99.90;;;22.02;100.00;100346.19;9719802;29;98545;-86
2023/08/17 06:42:00;;;;;;;;;;;23.20;99.90;;;22.03;100.00;100334.31;9740412;29;97590;-86
2023/08/17 06:47:03;;;;;;;;;;;23.30;99.90;;;22.10;100.00;100335.84;9725592;29;98926;-86
2023/08/17 06:52:07;;;;;;;;;;;23.30;99.90;;;22.26;100.00;100333.44;9740246;29;96813;-86
2023/08/17 06:57:10;;;;;;;;;;;23.50;99.90;;;22.40;100.00;100329.38;9737100;29;97264;-86
2023/08/17 07:02:15;;;;;;;;;;;23.60;99.90;;;22.50;100.00;100321.44;9737889;29;98083;-89
2023/08/17 07:07:18;;;;;;;;;;;23.80;99.90;;;22.59;100.00;100332.69;9742724;29;98369;-89
2023/08/17 07:12:23;;;;;;;;;;;23.80;99.90;;;22.55;100.00;100335.09;9719450;29;96774;-88
2023/08/17 07:17:27;;;;;;;;;;;23.80;99.90;;;22.64;100.00;100333.59;9733554;29;96738;-88
2023/08/17 07:22:31;;;;;;;;;;;23.90;99.90;;;22.81;100.00;100343.66;9745121;29;98444;-89
2023/08/17 07:27:34;;;;;;;;;;;24.10;99.90;;;23.10;100.00;100344.44;9738932;29;96732;-89
2023/08/17 07:32:39;;;;;;;;;;;24.40;99.90;;;23.29;95.64;100347.72;9751645;29;97684;-89
2023/08/17 07:37:46;;;;;;;;;;;24.60;99.90;;;23.49;93.78;100345.28;9741445;29;96876;-91
2023/08/17 07:43:06;;;;;;;;;;;24.80;99.90;;;23.59;91.66;100334.59;9754472;29;97324;-89
2023/08/17 07:48:09;;;;;;;;;;;24.90;99.90;;;23.65;87.82;100330.91;9759609;29;97119;-89
2023/08/17 07:53:13;;;;;;;;;;;25.00;99.90;;;23.66;90.53;100331.72;9776882;29;99026;-90
2023/08/17 07:58:16;;;;;;;;;;;25.00;99.90;;;23.69;89.98;100331.22;9752898;29;98233;-90
2023/08/17 08:03:20;;;;;;;;;;;25.10;99.90;;;23.70;90.42;100333.69;9760230;29;98401;-91
2023/08/17 08:08:23;;;;;;;;;;;25.10;99.90;;;23.64;90.10;100323.03;9761106;29;96768;-90
2023/08/17 08:13:27;;;;;;;;;;;25.00;99.90;;;23.60;91.09;100333.50;9751181;29;97974;-90
2023/08/17 08:18:30;;;;;;;;;;;24.90;99.90;;;23.52;89.74;100327.72;9774468;29;98075;-88
2023/08/17 08:23:33;;;;;;;;;;;24.90;99.90;;;23.56;90.37;100332.34;9768263;29;98203;-90
2023/08/17 08:28:37;;;;;;;;;;;24.90;99.90;;;23.59;92.68;100310.19;9754887;29;96876;-89
2023/08/17 08:33:40;;;;;;;;;;;24.90;99.90;;;23.84;94.03;100303.47;9755327;29;98835;-89
2023/08/17 08:38:44;;;;;;;;;;;25.10;99.90;;;24.11;88.91;100306.22;9763633;29;98857;-90
2023/08/17 08:43:47;;;;;;;;;;;25.40;99.90;;;24.34;86.69;100313.25;9780119;29;96956;-90
2023/08/17 08:48:52;;;;;;;;;;;25.70;99.90;;;24.47;82.80;100304.72;9749070;29;99149;-90
2023/08/17 08:54:03;;;;;;;;;;;25.80;99.90;;;24.50;82.12;100301.50;9766702;29;98897;-92
2023/08/17 08:59:07;;;;;;;;;;;25.80;99.90;;;24.56;81.31;100304.00;9764376;29;98250;-91
2023/08/17 09:04:11;;;;;;;;;;;25.90;99.90;;;24.71;81.23;100310.63;9784008;29;97039;-93
2023/08/17 09:09:16;;;;;;;;;;;26.10;99.90;;;24.77;80.49;100310.47;9732131;29;96805;-93
2023/08/17 09:14:20;;;;;;;;;;;26.20;99.90;;;24.82;80.67;100307.75;9749964;29;96673;-93
2023/08/17 09:19:23;;;;;;;;;;;26.20;99.90;;;24.88;78.92;100300.47;9783893;29;96730;-93
2023/08/17 09:24:36;;;;;;;;;;;26.30;99.90;;;25.02;76.72;100288.09;9777581;29;97770;-92
2023/08/17 09:29:43;;;;;;;;;;;26.40;99.90;;;25.06;74.49;100277.53;9753050;29;97060;-92
2023/08/17 09:34:49;;;;;;;;;;;26.50;99.90;;;25.12;71.96;100284.63;9772177;29;96716;-92
2023/08/17 09:39:53;;;;;;;;;;;26.60;99.90;;;25.12;68.73;100275.66;9765700;29;96786;-90
2023/08/17 09:44:57;;;;;;;;;;;26.60;99.70;;;25.08;71.46;100273.47;9766260;29;96712;-91
2023/08/17 09:50:01;;;;;;;;;;;26.50;99.50;;;25.03;71.92;100267.16;9785619;29;96649;-92
2023/08/17 09:55:07;;;;;;;;;;;26.50;99.60;;;25.11;71.81;100255.81;9760740;29;97237;-93
2023/08/17 10:00:11;;;;;;;;;;;26.50;98.90;;;25.24;71.88;100259.97;9786539;29;96639;-91
2023/08/17 10:05:17;;;;;;;;;;;26.60;99.30;;;25.45;70.35;100261.72;9771918;29;96791;-92
2023/08/17 10:10:27;;;;;;;;;;;26.80;99.00;;;25.69;69.87;100251.22;9770459;29;97308;-93
2023/08/17 10:15:33;;;;;;;;;;;27.10;98.20;;;25.81;68.97;100243.66;9770895;29;96706;-92
2023/08/17 10:20:41;;;;;;;;;;;27.30;97.90;;;26.03;68.35;100234.44;9746845;29;97106;-93
2023/08/17 10:25:45;;;;;;;;;;;27.50;97.60;;;26.23;65.43;100237.22;9769581;29;97600;-93
2023/08/17 10:30:55;;;;;;;;;;;27.70;96.30;;;26.27;66.28;100241.06;9788854;29;97357;-94
2023/08/17 10:36:01;;;;;;;;;;;27.70;96.40;;;26.27;66.79;100242.94;9776806;29;96561;-95
2023/08/17 10:41:08;;;;;;;;;;;27.70;96.40;;;26.27;64.05;100245.66;9755139;29;96682;-94
2023/08/17 10:46:16;;;;;;;;;;;27.70;94.60;;;26.14;66.32;100236.91;9744031;29;96632;-93
2023/08/17 10:51:23;;;;;;;;;;;27.60;95.50;;;26.15;64.78;100244.03;9775897;29;97493;-94
2023/08/17 10:56:27;;;;;;;;;;;27.60;95.40;;;26.04;65.97;100247.00;9755124;29;96629;-93
2023/08/17 11:01:40;;;;;;;;;;;27.50;95.30;;;26.05;65.18;100245.91;9781155;29;96561;-94
2023/08/17 11:06:44;;;;;;;;;;;27.50;94.70;;;26.04;65.32;100244.28;9773581;29;97651;-94
2023/08/17 11:11:56;;;;;;;;;;;27.50;94.80;;;26.03;64.48;100240.75;9775493;29;96678;-94
2023/08/17 11:16:59;;;;;;;;;;;27.50;94.00;;;26.06;65.94;100237.47;9760223;29;96520;-94
2023/08/17 11:22:09;;;;;;;;;;;27.50;94.80;;;26.06;64.52;100237.47;9771290;29;97035;-95
2023/08/17 11:27:12;;;;;;;;;;;27.50;94.20;;;26.08;65.87;100235.28;9743665;29;96667;-94
2023/08/17 11:32:17;;;;;;;;;;;27.50;94.60;;;26.15;65.16;100232.31;9772571;29;97502;-94
2023/08/17 11:37:21;;;;;;;;;;;27.60;94.10;;;26.19;66.08;100238.03;9790575;29;97483;-94
2023/08/17 11:42:26;;;;;;;;;;;27.60;94.50;;;26.17;65.02;100237.50;9780136;29;96596;-94
2023/08/17 11:47:32;;;;;;;;;;;27.60;94.00;;;26.16;64.10;100250.28;9775041;29;97810;-93
2023/08/17 11:52:36;;;;;;;;;;;27.60;93.30;;;26.09;64.26;100233.41;9760463;29;97920;-92
2023/08/17 11:57:39;;;;;;;;;;;27.50;93.40;;;26.18;64.72;100247.28;9786762;29;97079;-93
2023/08/17 12:02:43;;;;;;;;;;;27.60;93.80;;;26.31;63.77;100231.22;9785015;29;96771;-93
2023/08/17 12:07:49;;;;;;;;;;;27.70;93.30;;;26.47;63.13;100234.00;9790595;29;98680;-93
2023/08/17 12:12:53;;;;;;;;;;;27.90;93.00;;;26.60;64.24;100226.09;9790572;29;96707;-95
2023/08/17 12:17:59;;;;;;;;;;;28.10;93.40;;;26.96;64.83;100226.06;9760659;29;96783;-93
2023/08/17 12:23:03;;;;;;;;;;;28.30;93.80;;;27.23;62.59;100216.72;9754091;29;96752;-92
2023/08/17 12:28:07;;;;;;;;;;;28.70;92.60;;;27.58;60.62;100213.06;9785983;29;96770;-92
2023/08/17 12:33:10;;;;;;;;;;;29.00;92.10;;;27.95;59.59;100210.72;9742037;29;97582;-92
2023/08/17 12:38:14;;;;;;;;;;;29.40;92.00;;;28.21;59.20;100208.63;9748874;29;97123;-94
2023/08/17 12:43:19;;;;;;;;;;;29.60;91.60;;;28.40;57.36;100192.38;9768287;29;98281;-94
2023/08/17 12:48:22;;;;;;;;;;;29.90;90.70;;;28.62;57.64;100193.84;9753324;29;98240;-94
2023/08/17 12:53:26;;;;;;;;;;;30.10;90.50;;;28.87;56.01;100184.56;9777216;29;97239;-92
2023/08/17 12:58:29;;;;;;;;;;;30.20;88.20;;;29.04;54.40;100177.56;9754163;29;97368;-93
2023/08/17 13:03:33;;;;;;;;;;;30.50;85.80;;;29.09;53.32;100181.31;9779453;29;96761;-92
2023/08/17 13:08:36;;;;;;;;;;;30.50;85.60;;;28.87;52.31;100160.75;9752828;29;98216;-94
2023/08/17 13:13:39;;;;;;;;;;;30.40;83.40;;;28.83;54.77;100159.69;9764782;29;98130;-94
2023/08/17 13:18:43;;;;;;;;;;;30.40;85.40;;;28.80;53.29;100161.09;9757250;29;97004;-93
2023/08/17 13:23:46;;;;;;;;;;;30.40;84.20;;;28.67;54.16;100164.53;9772884;29;96797;-93
2023/08/17 13:28:50;;;;;;;;;;;30.30;84.00;;;28.56;55.30;100157.53;9767237;29;96975;-94
2023/08/17 13:33:53;;;;;;;;;;;30.20;84.70;;;28.72;54.81;100155.44;9756859;29;97358;-91
2023/08/17 13:38:57;;;;;;;;;;;30.40;84.70;;;28.88;54.42;100143.25;9758126;29;98299;-91
2023/08/17 13:44:02;;;;;;;;;;;30.60;83.00;;;29.03;52.74;100148.56;9758717;29;97221;-91
2023/08/17 13:49:06;;;;;;;;;;;30.60;81.50;;;29.01;54.11;100131.63;9773341;29;98878;-91
2023/08/17 13:54:09;;;;;;;;;;;30.50;83.20;;;29.11;54.27;100143.56;9779555;29;96671;-89
2023/08/17 13:59:12;;;;;;;;;;;30.50;83.20;;;29.25;54.32;100139.00;9758612;29;98902;-91
2023/08/17 14:04:17;;;;;;;;;;;30.60;83.40;;;29.09;51.02;100145.75;9768383;29;96764;-85
2023/08/17 14:09:21;;;;;;;;;;;30.60;80.30;;;28.85;52.97;100145.72;9762273;29;97571;-89
2023/08/17 14:14:24;;;;;;;;;;;30.40;80.80;;;28.68;52.04;100162.59;9774708;29;98316;-90
2023/08/17 14:19:28;;;;;;;;;;;30.20;79.60;;;28.21;52.88;100178.56;9781419;29;98191;-89
2023/08/17 14:24:31;;;;;;;;;;;29.70;80.00;;;27.61;55.78;100174.28;9778339;29;98441;-90
2023/08/17 14:29:35;;;;;;;;;;;29.10;82.50;;;27.08;59.76;100173.97;9782677;29;96701;-90
2023/08/17 14:34:38;;;;;;;;;;;28.50;84.10;;;26.73;61.36;100159.28;9773027;29;97607;-89
2023/08/17 14:39:42;;;;;;;;;;;28.10;85.50;;;26.52;63.12;100155.00;9767737;29;96720;-88
2023/08/17 14:44:45;;;;;;;;;;;27.80;87.20;;;26.57;63.52;100154.97;9770468;29;97423;-88
2023/08/17 14:49:49;;;;;;;;;;;27.90;88.20;;;26.72;62.63;100159.59;9758059;29;97775;-87
2023/08/17 14:54:53;;;;;;;;;;;28.20;87.90;;;26.80;61.62;100157.09;9769317;29;96847;-87
2023/08/17 14:59:57;;;;;;;;;;;28.30;87.10;;;26.84;62.41;100154.66;9744630;29;98664;-88
2023/08/17 15:05:01;;;;;;;;;;;28.30;87.40;;;26.66;60.20;100161.50;9767964;29;98407;-87
2023/08/17 15:10:05;;;;;;;;;;;28.10;86.40;;;26.45;60.99;100157.16;9766652;29;97814;-89
2023/08/17 15:15:09;;;;;;;;;;;27.80;86.70;;;26.22;63.15;100167.50;9753755;29;97191;-88
2023/08/17 15:20:12;;;;;;;;;;;27.60;88.70;;;25.89;66.21;100158.75;9756289;29;97858;-88
2023/08/17 15:25:16;;;;;;;;;;;27.30;90.10;;;25.75;67.53;100165.81;9768925;29;98837;-88
2023/08/17 15:30:19;;;;;;;;;;;27.10;90.80;;;25.65;69.07;100159.47;9765977;29;97728;-88
2023/08/17 15:35:23;;;;;;;;;;;26.90;91.30;;;25.58;69.76;100151.56;9758303;29;99319;-88
2023/08/17 15:40:26;;;;;;;;;;;26.90;91.80;;;25.68;71.18;100148.88;9757431;29;99054;-88
2023/08/17 15:45:29;;;;;;;;;;;27.00;92.20;;;25.60;74.21;100135.78;9754598;29;96924;-88
2023/08/17 15:50:33;;;;;;;;;;;27.00;92.80;;;25.38;74.71;100146.09;9746790;29;97625;-87
2023/08/17 15:55:36;;;;;;;;;;;26.80;93.50;;;25.19;77.17;100160.16;9782201;29;96736;-88
2023/08/17 16:00:40;;;;;;;;;;;26.50;94.40;;;25.07;79.20;100152.22;9770790;29;96671;-87
2023/08/17 16:05:43;;;;;;;;;;;26.30;94.70;;;24.97;78.96;100151.31;9785406;29;98155;-87
2023/08/17 16:10:47;;;;;;;;;;;26.30;94.80;;;24.87;78.53;100165.66;9768568;29;98762;-88
2023/08/17 16:15:52;;;;;;;;;;;26.10;94.90;;;24.68;79.55;100162.56;9774520;29;96858;-86
2023/08/17 16:20:56;;;;;;;;;;;26.00;95.30;;;24.62;80.39;100155.44;9768988;29;97599;-87
2023/08/17 16:25:59;;;;;;;;;;;25.90;96.00;;;24.63;82.27;100164.41;9754411;29;99025;-89
2023/08/17 16:31:02;;;;;;;;;;;25.80;96.40;;;24.54;81.10;100162.19;9779037;29;97513;-88
2023/08/17 16:36:08;;;;;;;;;;;25.80;95.90;;;24.50;82.47;100174.66;9763569;29;98391;-87
2023/08/17 16:41:11;;;;;;;;;;;25.70;97.10;;;24.39;85.16;100164.78;9767435;29;96967;-87
2023/08/17 16:46:15;;;;;;;;;;;25.50;97.50;;;24.25;86.62;100158.94;9755994;29;97694;-88
2023/08/17 16:51:19;;;;;;;;;;;25.50;98.00;;;24.22;88.36;100172.22;9761222;29;98419;-87
2023/08/17 16:56:22;;;;;;;;;;;25.40;98.10;;;24.15;89.03;100163.47;9760489;29;96699;-87
2023/08/17 17:01:26;;;;;;;;;;;25.30;98.70;;;24.05;89.59;100153.34;9753751;29;96912;-88
2023/08/17 17:06:30;;;;;;;;;;;25.30;98.50;;;24.06;90.98;100159.59;9768257;29;98595;-88
2023/08/17 17:11:33;;;;;;;;;;;25.30;99.40;;;23.99;90.50;100157.91;9763841;29;97807;-87
2023/08/17 17:16:36;;;;;;;;;;;25.20;99.80;;;23.94;91.19;100166.00;9766304;29;96732;-87
2023/08/17 17:21:41;;;;;;;;;;;25.10;99.90;;;23.92;90.65;100172.75;9760046;29;96777;-87
2023/08/17 17:26:44;;;;;;;;;;;25.10;99.90;;;23.87;91.87;100180.84;9768491;29;98292;-87
2023/08/17 17:31:48;;;;;;;;;;;25.00;99.90;;;23.80;92.08;100172.06;9746475;29;96771;-87
2023/08/17 17:36:52;;;;;;;;;;;24.90;99.90;;;23.74;92.94;100168.50;9751058;29;97523;-86
2023/08/17 17:41:56;;;;;;;;;;;24.90;99.90;;;23.68;93.74;100170.31;9767707;29;98159;-89
2023/08/17 17:47:00;;;;;;;;;;;24.80;99.90;;;23.66;94.26;100179.81;9773843;29;96730;-89
2023/08/17 17:52:04;;;;;;;;;;;24.80;99.90;;;23.60;95.06;100173.47;9748730;29;97119;-89
2023/08/17 17:57:07;;;;;;;;;;;24.80;99.90;;;23.54;95.79;100170.97;9746607;29;97274;-89
2023/08/17 18:02:11;;;;;;;;;;;24.70;99.90;;;23.55;96.49;100186.97;9775016;29;98601;-90
2023/08/17 18:07:15;;;;;;;;;;;24.70;99.90;;;23.50;97.06;100187.72;9778501;29;98886;-89
2023/08/17 18:12:19;;;;;;;;;;;24.60;99.90;;;23.47;97.18;100187.44;9773217;29;98554;-89
2023/08/17 18:17:23;;;;;;;;;;;24.60;99.90;;;23.39;97.83;100179.72;9778725;29;96688;-90
2023/08/17 18:22:26;;;;;;;;;;;24.50;99.90;;;23.35;97.73;100184.84;9767655;29;97337;-90
2023/08/17 18:27:30;;;;;;;;;;;24.50;99.90;;;23.33;97.72;100186.16;9770092;29;96921;-90
2023/08/17 18:32:35;;;;;;;;;;;24.50;99.90;;;23.24;98.17;100193.91;9733130;29;98221;-89
2023/08/17 18:37:39;;;;;;;;;;;24.40;99.90;;;23.14;98.74;100201.91;9753834;29;98313;-87
2023/08/17 18:42:42;;;;;;;;;;;24.30;99.90;;;23.03;99.94;100217.22;9748077;29;97492;-89
2023/08/17 18:47:46;;;;;;;;;;;24.20;99.90;;;22.94;100.00;100216.00;9745019;29;98741;-89
2023/08/17 18:52:50;;;;;;;;;;;24.10;99.90;;;22.89;100.00;100205.09;9733333;29;98330;-89
2023/08/17 18:57:55;;;;;;;;;;;24.00;99.90;;;22.81;100.00;100216.31;9737382;29;96803;-89
2023/08/17 19:03:01;;;;;;;;;;;23.90;99.90;;;22.74;100.00;100221.09;9749861;29;98349;-89
2023/08/17 19:08:05;;;;;;;;;;;23.80;99.90;;;22.59;100.00;100219.75;9724362;29;97051;-89
2023/08/17 19:13:09;;;;;;;;;;;23.70;99.90;;;22.48;100.00;100211.72;9737165;29;97317;-89
2023/08/17 19:18:12;;;;;;;;;;;23.60;99.90;;;22.44;100.00;100219.53;9747731;29;99187;-90
2023/08/17 19:23:17;;;;;;;;;;;23.60;99.90;;;22.40;100.00;100205.66;9735122;29;96959;-90
2023/08/17 19:28:20;;;;;;;;;;;23.60;99.90;;;22.34;100.00;100198.50;9749754;29;98480;-91
2023/08/17 19:33:24;;;;;;;;;;;23.60;99.90;;;22.35;100.00;100207.44;9720103;29;97869;-89
2023/08/17 19:38:28;;;;;;;;;;;23.60;99.90;;;22.31;100.00;100193.59;9736317;29;97993;-89
2023/08/17 19:43:32;;;;;;;;;;;23.50;99.90;;;22.26;100.00;100201.63;9722339;29;97879;-89
2023/08/17 19:48:35;;;;;;;;;;;23.50;99.90;;;22.27;100.00;100215.97;9736475;29;98628;-90
2023/08/17 19:53:39;;;;;;;;;;;23.40;99.90;;;22.21;100.00;100215.06;9735531;29;98459;-90
2023/08/17 19:58:42;;;;;;;;;;;23.40;99.90;;;22.10;100.00;100218.66;9738691;29;96836;-90
2023/08/17 20:03:49;;;;;;;;;;;23.20;99.90;;;22.02;100.00;100211.72;9714239;29;98756;-90
2023/08/17 20:08:53;;;;;;;;;;;23.20;99.90;;;21.98;100.00;100223.28;9729262;29;97174;-90
2023/08/17 20:13:56;;;;;;;;;;;23.10;99.90;;;21.87;100.00;100222.25;9740927;29;98227;-90
2023/08/17 20:19:00;;;;;;;;;;;23.00;99.90;;;21.75;100.00;100219.59;9736288;29;98402;-90
2023/08/17 20:24:05;;;;;;;;;;;22.80;99.90;;;21.67;100.00;100216.47;9722570;29;98132;-89
2023/08/17 20:29:11;;;;;;;;;;;22.80;99.90;;;21.59;100.00;100215.78;9735059;29;96886;-89
2023/08/17 20:34:14;;;;;;;;;;;22.70;99.90;;;21.59;100.00;100228.44;9734045;29;99668;-89
2023/08/17 20:39:19;;;;;;;;;;;22.70;99.90;;;21.53;100.00;100230.25;9733873;29;97581;-89
2023/08/17 20:44:23;;;;;;;;;;;22.60;99.90;;;21.48;100.00;100218.50;9743141;29;98025;-89
2023/08/17 20:49:27;;;;;;;;;;;22.60;99.90;;;21.55;100.00;100228.13;9750982;29;97115;-89
2023/08/17 20:54:31;;;;;;;;;;;22.70;99.90;;;21.55;100.00;100224.59;9748996;29;96720;-90
2023/08/17 20:59:34;;;;;;;;;;;22.70;99.90;;;21.53;100.00;100232.13;9756133;29;98546;-90
2023/08/17 21:04:38;;;;;;;;;;;22.60;99.90;;;21.49;100.00;100229.09;9747270;29;98387;-88
2023/08/17 21:09:41;;;;;;;;;;;22.60;99.90;;;21.42;100.00;100244.63;9734350;29;96711;-89
2023/08/17 21:14:47;;;;;;;;;;;22.60;99.90;;;21.26;100.00;100238.03;9739121;29;97921;-89
2023/08/17 21:19:50;;;;;;;;;;;22.50;99.90;;;21.26;100.00;100245.31;9732799;29;98232;-89
2023/08/17 21:24:54;;;;;;;;;;;22.40;99.90;;;21.26;100.00;100239.91;9744509;29;96755;-89
2023/08/17 21:29:57;;;;;;;;;;;22.40;99.90;;;21.16;100.00;100236.97;9725000;29;96939;-89
2023/08/17 21:35:01;;;;;;;;;;;22.30;99.90;;;21.16;100.00;100248.59;9729596;29;98445;-89
2023/08/17 21:40:05;;;;;;;;;;;22.30;99.90;;;21.13;100.00;100234.75;9739634;29;96842;-89
2023/08/17 21:45:09;;;;;;;;;;;22.30;99.90;;;21.06;100.00;100251.09;9735559;29;96810;-88
2023/08/17 21:50:12;;;;;;;;;;;22.20;99.90;;;21.01;100.00;100256.38;9722503;29;97142;-88
2023/08/17 21:55:16;;;;;;;;;;;22.10;99.90;;;20.97;100.00;100244.38;9727153;29;98181;-89
2023/08/17 22:00:20;;;;;;;;;;;22.10;99.90;;;20.95;100.00;100247.31;9739454;29;97892;-88
2023/08/17 22:05:23;;;;;;;;;;;22.10;99.90;;;20.91;100.00;100246.13;9742346;29;97738;-88
2023/08/17 22:10:26;;;;;;;;;;;22.10;99.90;;;20.89;100.00;100237.47;9716033;29;97097;-88
2023/08/17 22:15:30;;;;;;;;;;;22.10;99.90;;;20.80;100.00;100228.88;9740703;29;96750;-88
2023/08/17 22:20:34;;;;;;;;;;;22.00;99.90;;;20.76;100.00;100227.72;9721216;29;96848;-88
2023/08/17 22:25:38;;;;;;;;;;;21.90;99.90;;;20.72;100.00;100231.09;9744256;29;98335;-88
2023/08/17 22:30:41;;;;;;;;;;;21.90;99.90;;;20.70;100.00;100233.22;9742702;29;97344;-89
2023/08/17 22:35:45;;;;;;;;;;;21.90;99.90;;;20.72;100.00;100237.31;9734927;29;98241;-89
2023/08/17 22:40:49;;;;;;;;;;;21.90;99.90;;;20.70;100.00;100234.03;9742770;29;96914;-89
2023/08/17 22:45:52;;;;;;;;;;;21.90;99.90;;;20.69;100.00;100231.56;9759461;29;98159;-89
2023/08/17 22:50:55;;;;;;;;;;;21.90;99.90;;;20.67;100.00;100229.09;9739424;29;98250;-89